createdAt,value
2022-08-14T00:02:14.165Z,32.23
2022-08-14T00:04:44.625Z,32.56
2022-08-14T00:07:14.268Z,32.69
2022-08-14T00:10:02.518Z,32.59
2022-08-14T00:12:53.393Z,32.91
2022-08-14T00:15:43.664Z,33.10
2022-08-14T00:18:30.703Z,33.21
2022-08-14T00:21:01.900Z,33.26
2022-08-14T00:23:30.848Z,33.15
2022-08-14T00:26:05.890Z,33.19
2022-08-14T00:28:35.745Z,33.64
2022-08-14T00:31:08.087Z,33.61
2022-08-14T00:33:52.330Z,33.75
2022-08-14T00:36:37.178Z,33.64
2022-08-14T00:39:18.182Z,33.52
2022-08-14T00:41:47.268Z,34.17
2022-08-14T00:44:15.222Z,33.96
2022-08-14T00:46:53.619Z,34.13
2022-08-14T00:49:25.717Z,34.17
2022-08-14T00:51:53.524Z,34.17
2022-08-14T00:54:21.738Z,34.31
2022-08-14T00:56:55.459Z,34.58
2022-08-14T00:59:28.445Z,34.78
2022-08-14T01:02:00.776Z,35.71
2022-08-14T01:04:37.913Z,35.70
2022-08-14T01:07:22.174Z,35.17
2022-08-14T01:10:05.165Z,35.59
2022-08-14T01:12:33.762Z,35.55
2022-08-14T01:15:09.376Z,35.69
2022-08-14T01:17:55.382Z,35.81
2022-08-14T01:20:41.273Z,35.76
2022-08-14T01:23:18.880Z,36.09
2022-08-14T01:25:51.032Z,36.10
2022-08-14T01:28:46.109Z,35.91
2022-08-14T01:31:17.298Z,36.39
2022-08-14T01:33:59.516Z,36.24
2022-08-14T01:36:39.032Z,36.51
2022-08-14T01:39:13.141Z,36.79
2022-08-14T01:41:49.130Z,36.30
2022-08-14T01:44:33.210Z,36.66
2022-08-14T01:47:21.665Z,36.61
2022-08-14T01:50:01.279Z,36.62
2022-08-14T01:52:59.276Z,36.75
2022-08-14T01:55:32.338Z,36.76
2022-08-14T01:58:18.022Z,36.64
2022-08-14T02:00:47.885Z,37.06
2022-08-14T02:03:16.117Z,37.42
2022-08-14T02:05:43.632Z,37.30
2022-08-14T02:08:10.750Z,37.61
2022-08-14T02:10:46.723Z,37.64
2022-08-14T02:13:16.837Z,37.49
2022-08-14T02:15:45.372Z,37.85
2022-08-14T02:18:15.515Z,37.90
2022-08-14T02:20:42.934Z,38.10
2022-08-14T02:23:11.424Z,38.10
2022-08-14T02:25:39.350Z,38.13
2022-08-14T02:28:23.243Z,37.63
2022-08-14T02:30:54.149Z,38.33
2022-08-14T02:33:22.546Z,39.02
2022-08-14T02:35:53.305Z,38.59
2022-08-14T02:38:35.157Z,38.24
2022-08-14T02:41:08.981Z,37.63
2022-08-14T02:43:46.597Z,38.47
2022-08-14T02:46:20.334Z,38.98
2022-08-14T02:49:01.650Z,38.82
2022-08-14T02:51:33.077Z,39.59
2022-08-14T02:54:01.660Z,39.27
2022-08-14T02:57:15.890Z,39.24
2022-08-14T02:59:18.713Z,39.29
2022-08-14T03:01:50.981Z,39.15
2022-08-14T03:04:22.263Z,39.38
2022-08-14T03:06:57.625Z,39.74
2022-08-14T03:09:42.191Z,39.96
2022-08-14T03:12:27.235Z,39.97
2022-08-14T03:15:02.641Z,39.99
2022-08-14T03:17:32.002Z,40.37
2022-08-14T03:20:11.927Z,40.34
2022-08-14T03:22:41.875Z,40.29
2022-08-14T03:25:11.367Z,40.42
2022-08-14T03:27:48.288Z,40.20
2022-08-14T03:30:38.970Z,40.20
2022-08-14T03:33:11.515Z,40.37
2022-08-14T03:36:00.434Z,40.38
2022-08-14T03:39:16.052Z,40.30
2022-08-14T03:41:19.005Z,40.77
2022-08-14T03:43:57.056Z,41.32
2022-08-14T03:46:51.807Z,41.49
2022-08-14T03:49:28.562Z,41.56
2022-08-14T03:51:58.515Z,41.59
2022-08-14T03:54:29.035Z,41.87
2022-08-14T03:57:00.668Z,41.84
2022-08-14T03:59:32.151Z,41.69
2022-08-14T04:02:02.106Z,41.79
2022-08-14T04:04:33.396Z,41.88
2022-08-14T04:07:00.763Z,42.04
2022-08-14T04:09:28.386Z,42.04
2022-08-14T04:11:57.922Z,42.33
2022-08-14T04:14:25.300Z,42.34
2022-08-14T04:16:52.163Z,42.53
2022-08-14T04:19:23.952Z,42.36
2022-08-14T04:22:03.164Z,42.56
2022-08-14T04:24:37.701Z,42.46
2022-08-14T04:27:11.709Z,42.26
2022-08-14T04:29:42.557Z,42.22
2022-08-14T04:33:10.368Z,42.26
2022-08-14T04:34:57.939Z,42.31
2022-08-14T04:37:45.211Z,42.19
2022-08-14T04:40:32.277Z,42.16
2022-08-14T04:43:18.252Z,41.86
2022-08-14T04:45:50.985Z,41.88
2022-08-14T04:48:38.781Z,41.91
2022-08-14T04:51:15.738Z,41.89
2022-08-14T04:53:48.214Z,41.79
2022-08-14T04:56:31.665Z,42.11
2022-08-14T04:59:10.372Z,41.85
2022-08-14T05:01:45.208Z,42.33
2022-08-14T05:04:19.969Z,41.91
2022-08-14T05:06:49.525Z,42.73
2022-08-14T05:09:21.564Z,42.60
2022-08-14T05:11:49.818Z,42.54
2022-08-14T05:14:46.056Z,42.42
2022-08-14T05:17:11.015Z,42.39
2022-08-14T05:19:44.599Z,42.49
2022-08-14T05:22:26.927Z,42.35
2022-08-14T05:24:53.839Z,42.70
2022-08-14T05:27:22.801Z,42.46
2022-08-14T05:29:55.191Z,42.50
2022-08-14T05:32:27.254Z,42.32
2022-08-14T05:34:59.327Z,42.38
2022-08-14T05:37:29.946Z,42.49
2022-08-14T05:39:59.033Z,42.84
2022-08-14T05:42:31.782Z,42.65
2022-08-14T05:44:59.483Z,42.66
2022-08-14T05:47:29.125Z,42.73
2022-08-14T05:50:17.279Z,42.73
2022-08-14T05:52:48.083Z,42.76
2022-08-14T05:55:16.695Z,42.64
2022-08-14T05:57:53.813Z,42.14
2022-08-14T06:00:29.929Z,42.09
2022-08-14T06:03:06.877Z,42.03
2022-08-14T06:05:35.378Z,42.50
2022-08-14T06:08:31.121Z,42.01
2022-08-14T06:11:06.065Z,41.63
2022-08-14T06:13:45.139Z,41.60
2022-08-14T06:16:18.192Z,41.39
2022-08-14T06:18:52.986Z,41.29
2022-08-14T06:21:24.184Z,41.41
2022-08-14T06:23:51.886Z,41.39
2022-08-14T06:26:20.823Z,41.18
2022-08-14T06:28:52.103Z,40.91
2022-08-14T06:31:20.985Z,40.56
2022-08-14T06:35:11.334Z,40.37
2022-08-14T06:36:37.655Z,40.58
2022-08-14T06:39:04.860Z,40.54
2022-08-14T06:41:57.736Z,40.61
2022-08-14T06:44:32.282Z,40.57
2022-08-14T06:47:04.377Z,40.54
2022-08-14T06:49:40.452Z,40.68
2022-08-14T06:52:16.530Z,40.67
2022-08-14T06:54:44.692Z,40.57
2022-08-14T06:57:12.428Z,40.71
2022-08-14T06:59:40.700Z,40.51
2022-08-14T07:02:29.173Z,40.19
2022-08-14T07:05:20.787Z,40.48
2022-08-14T07:07:48.507Z,40.69
2022-08-14T07:10:17.257Z,40.73
2022-08-14T07:12:56.374Z,40.71
2022-08-14T07:15:39.602Z,40.59
2022-08-14T07:18:10.225Z,40.42
2022-08-14T07:20:38.854Z,40.26
2022-08-14T07:23:19.670Z,40.35
2022-08-14T07:25:50.012Z,39.93
2022-08-14T07:28:35.746Z,39.94
2022-08-14T07:31:06.491Z,39.75
2022-08-14T07:33:43.565Z,39.61
2022-08-14T07:36:27.340Z,39.41
2022-08-14T07:38:59.286Z,39.51
2022-08-14T07:41:34.205Z,38.93
2022-08-14T07:44:28.631Z,38.84
2022-08-14T07:46:50.680Z,38.56
2022-08-14T07:49:19.797Z,38.50
2022-08-14T07:51:49.293Z,38.57
2022-08-14T07:54:23.449Z,38.41
2022-08-14T07:56:59.941Z,38.24
2022-08-14T07:59:42.192Z,37.79
2022-08-14T08:02:18.657Z,37.60
2022-08-14T08:04:50.540Z,37.45
2022-08-14T08:07:22.594Z,37.37
2022-08-14T08:09:55.529Z,37.62
2022-08-14T08:12:30.244Z,37.36
2022-08-14T08:15:02.461Z,36.94
2022-08-14T08:17:38.255Z,36.83
2022-08-14T08:20:20.078Z,36.77
2022-08-14T08:22:55.590Z,36.79
2022-08-14T08:25:29.043Z,36.66
2022-08-14T08:28:21.993Z,36.43
2022-08-14T08:30:57.301Z,35.93
2022-08-14T08:33:32.377Z,36.07
2022-08-14T08:36:12.833Z,35.77
2022-08-14T08:39:15.556Z,35.78
2022-08-14T08:41:54.633Z,35.99
2022-08-14T08:44:33.236Z,35.86
2022-08-14T08:47:06.115Z,36.12
2022-08-14T08:49:52.659Z,36.17
2022-08-14T08:52:31.328Z,36.30
2022-08-14T08:55:01.101Z,36.29
2022-08-14T08:57:36.923Z,36.67
2022-08-14T09:00:24.365Z,36.83
2022-08-14T09:03:24.388Z,36.64
2022-08-14T09:05:54.410Z,37.27
2022-08-14T09:08:33.027Z,37.10
2022-08-14T09:11:19.000Z,37.03
2022-08-14T09:13:53.556Z,36.83
2022-08-14T09:16:25.062Z,37.00
2022-08-14T09:18:53.538Z,37.11
2022-08-14T09:21:24.148Z,35.90
2022-08-14T09:24:29.290Z,35.62
2022-08-14T09:26:48.935Z,35.18
2022-08-14T09:29:22.812Z,35.50
2022-08-14T09:31:58.238Z,35.45
2022-08-14T09:34:59.045Z,34.58
2022-08-14T09:37:29.005Z,33.94
2022-08-14T09:40:26.437Z,33.25
2022-08-14T09:43:26.315Z,32.80
2022-08-14T09:45:58.213Z,33.27
2022-08-14T09:48:31.025Z,32.81
2022-08-14T09:54:19.165Z,33.25
2022-08-14T09:56:51.650Z,32.58
2022-08-14T09:59:25.503Z,32.66
2022-08-14T10:01:57.057Z,32.09
2022-08-14T10:04:33.362Z,31.67
2022-08-14T10:07:05.116Z,30.48
2022-08-14T10:09:33.523Z,30.10
2022-08-14T10:12:04.569Z,29.82
2022-08-14T10:14:36.884Z,30.14
2022-08-14T10:17:07.097Z,30.15
2022-08-14T10:19:48.463Z,30.01
2022-08-14T10:23:11.746Z,30.09
2022-08-14T10:25:15.920Z,29.44
2022-08-14T10:27:47.062Z,28.01
2022-08-14T10:30:22.273Z,27.81
2022-08-14T10:32:51.718Z,28.05
2022-08-14T10:35:22.293Z,27.48
2022-08-14T10:37:52.554Z,27.00
2022-08-14T10:40:37.961Z,26.97
2022-08-14T10:43:27.867Z,26.59
2022-08-14T10:46:21.690Z,25.63
2022-08-14T10:49:04.319Z,26.41
2022-08-14T10:51:41.781Z,25.81
2022-08-14T10:54:35.348Z,25.43
2022-08-14T10:57:27.597Z,26.17
2022-08-14T11:00:02.278Z,25.22
2022-08-14T11:02:36.180Z,24.32
2022-08-14T11:05:19.287Z,24.89
2022-08-14T11:07:57.601Z,24.39
2022-08-14T11:10:50.348Z,24.74
2022-08-14T11:13:24.277Z,24.63
2022-08-14T11:15:52.598Z,24.15
2022-08-14T11:18:20.978Z,24.21
2022-08-14T11:21:01.871Z,23.43
2022-08-14T11:23:38.247Z,23.63
2022-08-14T11:26:08.665Z,23.55
2022-08-14T11:28:46.389Z,23.58
2022-08-14T11:31:22.103Z,23.68
2022-08-14T11:33:57.804Z,23.07
2022-08-14T11:37:02.797Z,23.42
2022-08-14T11:39:35.020Z,22.37
2022-08-14T11:42:57.021Z,22.86
2022-08-14T11:45:11.484Z,22.92
2022-08-14T11:48:12.796Z,22.37
2022-08-14T11:50:37.366Z,22.87
2022-08-14T11:53:08.506Z,22.83
2022-08-14T11:55:39.524Z,22.60
2022-08-14T11:58:11.096Z,22.46
2022-08-14T12:01:02.592Z,21.92
2022-08-14T12:03:52.322Z,22.36
2022-08-14T12:06:29.125Z,21.83
2022-08-14T12:09:03.199Z,21.36
2022-08-14T12:11:43.237Z,21.56
2022-08-14T12:14:13.450Z,21.97
2022-08-14T12:17:09.605Z,22.07
2022-08-14T12:19:54.017Z,21.67
2022-08-14T12:22:44.464Z,21.31
2022-08-14T12:25:31.153Z,21.24
2022-08-14T12:28:27.013Z,21.65
2022-08-14T12:30:59.656Z,21.36
2022-08-14T12:33:30.835Z,20.80
2022-08-14T12:36:05.423Z,21.29
2022-08-14T12:38:37.449Z,21.28
2022-08-14T12:41:21.954Z,21.40
2022-08-14T12:44:00.318Z,20.35
2022-08-14T12:46:31.667Z,20.46
2022-08-14T12:49:09.854Z,20.83
2022-08-14T12:51:37.951Z,20.75
2022-08-14T12:54:27.183Z,20.72
2022-08-14T12:57:18.710Z,20.54
2022-08-14T12:59:49.313Z,20.75
2022-08-14T13:02:28.518Z,20.55
2022-08-14T13:04:56.729Z,20.47
2022-08-14T13:07:32.541Z,20.54
2022-08-14T13:10:45.780Z,20.38
2022-08-14T13:13:13.068Z,20.23
2022-08-14T13:15:42.744Z,20.29
2022-08-14T13:18:14.699Z,20.52
2022-08-14T13:20:51.327Z,20.63
2022-08-14T13:23:30.380Z,20.35
2022-08-14T13:25:59.890Z,19.73
2022-08-14T13:28:33.022Z,19.49
2022-08-14T13:31:11.027Z,19.82
2022-08-14T13:33:41.162Z,19.99
2022-08-14T13:36:11.109Z,20.11
2022-08-14T13:38:53.880Z,19.95
2022-08-14T13:41:31.927Z,20.54
2022-08-14T13:44:04.045Z,20.47
2022-08-14T13:46:31.288Z,20.85
2022-08-14T13:48:59.726Z,20.69
2022-08-14T13:51:32.099Z,20.42
2022-08-14T13:54:10.837Z,19.68
2022-08-14T13:56:41.953Z,19.16
2022-08-14T13:59:10.485Z,19.31
2022-08-14T14:01:43.332Z,19.23
2022-08-14T14:04:19.279Z,19.28
2022-08-14T14:06:51.166Z,18.91
2022-08-14T14:09:32.224Z,18.81
2022-08-14T14:12:00.251Z,19.02
2022-08-14T14:14:44.518Z,18.84
2022-08-14T14:17:14.136Z,18.81
2022-08-14T14:19:47.746Z,18.55
2022-08-14T14:22:35.614Z,18.62
2022-08-14T14:25:05.990Z,18.85
2022-08-14T14:27:41.101Z,18.19
2022-08-14T14:30:31.946Z,18.45
2022-08-14T14:33:04.379Z,18.75
2022-08-14T14:35:38.587Z,18.68
2022-08-14T14:38:13.253Z,18.43
2022-08-14T14:40:52.394Z,19.05
2022-08-14T14:43:27.387Z,18.55
2022-08-14T14:45:56.215Z,18.58
2022-08-14T14:48:28.510Z,18.47
2022-08-14T14:51:01.245Z,18.19
2022-08-14T14:53:38.682Z,17.82
2022-08-14T14:56:49.527Z,17.90
2022-08-14T14:58:58.359Z,17.83
2022-08-14T15:01:25.610Z,17.73
2022-08-14T15:03:56.350Z,18.02
2022-08-14T15:06:30.516Z,17.81
2022-08-14T15:09:01.897Z,17.98
2022-08-14T15:11:32.265Z,18.16
2022-08-14T15:14:00.411Z,18.33
2022-08-14T15:16:28.407Z,18.35
2022-08-14T15:18:55.373Z,18.70
2022-08-14T15:21:23.156Z,18.46
2022-08-14T15:23:50.545Z,18.63
2022-08-14T15:26:23.843Z,18.85
2022-08-14T15:29:06.176Z,18.78
2022-08-14T15:31:36.179Z,18.56
2022-08-14T15:34:44.089Z,18.59
2022-08-14T15:37:10.792Z,18.59
2022-08-14T15:39:41.257Z,18.61
2022-08-14T15:42:16.220Z,19.14
2022-08-14T15:44:56.781Z,19.21
2022-08-14T15:47:28.072Z,18.71
2022-08-14T15:50:01.578Z,18.20
2022-08-14T15:52:44.693Z,18.84
2022-08-14T15:55:15.496Z,19.07
2022-08-14T15:58:01.646Z,19.16
2022-08-14T16:00:52.682Z,19.31
2022-08-14T16:03:27.832Z,18.63
2022-08-14T16:06:17.891Z,19.13
2022-08-14T16:08:58.908Z,19.50
2022-08-14T16:11:32.925Z,19.73
2022-08-14T16:14:01.103Z,20.32
2022-08-14T16:16:48.089Z,20.13
2022-08-14T16:19:21.117Z,19.46
2022-08-14T16:22:02.752Z,19.57
2022-08-14T16:24:59.769Z,19.46
2022-08-14T16:27:37.196Z,19.45
2022-08-14T16:30:24.622Z,19.29
2022-08-14T16:33:02.097Z,19.94
2022-08-14T16:35:42.173Z,19.82
2022-08-14T16:38:45.905Z,20.15
2022-08-14T16:41:45.653Z,19.70
2022-08-14T16:44:33.839Z,20.20
2022-08-14T16:47:04.342Z,20.50
2022-08-14T16:50:04.854Z,20.04
2022-08-14T16:52:43.355Z,20.32
2022-08-14T16:55:09.855Z,20.38
2022-08-14T16:57:50.513Z,21.10
2022-08-14T17:00:32.896Z,20.63
2022-08-14T17:03:11.910Z,20.74
2022-08-14T17:05:43.051Z,20.66
2022-08-14T17:08:32.255Z,21.08
2022-08-14T17:11:10.985Z,20.99
2022-08-14T17:13:59.215Z,20.85
2022-08-14T17:16:37.456Z,20.84
2022-08-14T17:19:13.731Z,21.37
2022-08-14T17:21:42.549Z,21.34
2022-08-14T17:24:58.365Z,21.70
2022-08-14T17:27:05.307Z,21.17
2022-08-14T17:29:44.827Z,21.43
2022-08-14T17:32:29.300Z,21.81
2022-08-14T17:35:10.722Z,21.70
2022-08-14T17:37:46.042Z,22.32
2022-08-14T17:40:25.759Z,22.43
2022-08-14T17:42:58.873Z,22.71
2022-08-14T17:45:41.582Z,21.95
2022-08-14T17:49:09.966Z,22.77
2022-08-14T17:51:23.841Z,22.99
2022-08-14T17:54:02.292Z,22.40
2022-08-14T17:56:34.092Z,22.41
2022-08-14T17:59:06.240Z,22.33
2022-08-14T18:01:46.020Z,22.10
2022-08-14T18:04:24.881Z,22.64
2022-08-14T18:07:08.756Z,22.15
2022-08-14T18:09:57.131Z,22.82
2022-08-14T18:12:36.981Z,22.78
2022-08-14T18:15:14.742Z,22.63
2022-08-14T18:17:52.509Z,23.41
2022-08-14T18:21:24.692Z,23.60
2022-08-14T18:23:13.997Z,24.00
2022-08-14T18:25:56.142Z,23.86
2022-08-14T18:28:45.045Z,23.19
2022-08-14T18:31:21.520Z,23.82
2022-08-14T18:33:56.645Z,23.54
2022-08-14T18:36:57.462Z,23.64
2022-08-14T18:40:02.082Z,23.94
2022-08-14T18:42:30.527Z,23.51
2022-08-14T18:45:00.919Z,23.55
2022-08-14T18:47:32.655Z,23.16
2022-08-14T18:50:32.064Z,23.57
2022-08-14T18:53:11.367Z,23.03
2022-08-14T18:55:53.473Z,23.48
2022-08-14T18:58:30.944Z,23.90
2022-08-14T19:01:00.188Z,23.96
2022-08-14T19:03:38.949Z,24.33
2022-08-14T19:06:10.232Z,23.45
2022-08-14T19:08:43.630Z,22.99
2022-08-14T19:11:51.451Z,22.91
2022-08-14T19:14:46.923Z,23.23
2022-08-14T19:18:15.014Z,23.27
2022-08-14T19:21:22.358Z,22.68
2022-08-14T19:24:29.507Z,23.14
2022-08-14T19:27:19.251Z,23.68
2022-08-14T19:29:51.266Z,23.59
2022-08-14T19:32:39.597Z,23.72
2022-08-14T19:35:43.583Z,23.92
2022-08-14T19:38:57.479Z,24.76
2022-08-14T19:41:30.236Z,24.43
2022-08-14T19:44:32.262Z,25.10
2022-08-14T19:47:04.940Z,25.31
2022-08-14T19:50:09.100Z,25.36
2022-08-14T19:52:39.722Z,26.21
2022-08-14T19:55:18.966Z,26.92
2022-08-14T19:57:57.917Z,27.68
2022-08-14T20:00:29.084Z,28.05
2022-08-14T20:03:10.231Z,27.97
2022-08-14T20:05:45.967Z,28.46
2022-08-14T20:10:58.391Z,28.36
2022-08-14T20:12:00.920Z,28.44
2022-08-14T20:14:20.904Z,28.53
2022-08-14T20:17:01.699Z,28.54
2022-08-14T20:19:37.655Z,28.95
2022-08-14T20:22:37.078Z,28.78
2022-08-14T20:25:18.867Z,29.03
2022-08-14T20:27:59.598Z,29.54
2022-08-14T20:30:33.758Z,29.87
2022-08-14T20:33:07.824Z,29.62
2022-08-14T20:35:47.666Z,29.80
2022-08-14T20:38:32.546Z,29.88
2022-08-14T20:41:09.870Z,30.06
2022-08-14T20:44:01.069Z,30.78
2022-08-14T20:46:38.832Z,30.58
2022-08-14T20:49:08.583Z,30.84
2022-08-14T20:51:58.700Z,30.12
2022-08-14T20:54:34.391Z,30.52
2022-08-14T20:57:09.496Z,30.33
2022-08-14T20:59:43.981Z,30.57
2022-08-14T21:02:46.339Z,30.58
2022-08-14T21:05:21.922Z,30.93
2022-08-14T21:08:08.192Z,30.74
2022-08-14T21:10:44.261Z,30.39
2022-08-14T21:13:27.560Z,30.26
2022-08-14T21:16:33.176Z,30.61
2022-08-14T21:18:58.780Z,30.82
2022-08-14T21:21:41.081Z,30.89
2022-08-14T21:24:39.254Z,30.52
2022-08-14T21:27:04.345Z,30.67
2022-08-14T21:29:39.778Z,30.75
2022-08-14T21:32:20.778Z,30.78
2022-08-14T21:34:55.477Z,30.86
2022-08-14T21:37:24.737Z,31.52
2022-08-14T21:39:58.870Z,31.31
2022-08-14T21:42:27.981Z,31.05
2022-08-14T21:44:55.127Z,30.92
2022-08-14T21:47:23.798Z,30.92
2022-08-14T21:49:50.872Z,31.28
2022-08-14T21:52:51.112Z,30.68
2022-08-14T21:55:13.832Z,30.65
2022-08-14T21:57:56.144Z,30.84
2022-08-14T22:00:36.688Z,30.94
2022-08-14T22:03:16.877Z,31.23
2022-08-14T22:05:50.214Z,30.79
2022-08-14T22:08:22.526Z,31.17
2022-08-14T22:10:56.059Z,31.50
2022-08-14T22:13:26.430Z,31.41
2022-08-14T22:15:59.481Z,31.06
2022-08-14T22:18:27.312Z,32.02
2022-08-14T22:20:57.496Z,31.80
2022-08-14T22:23:26.254Z,32.24
2022-08-14T22:25:55.395Z,31.97
2022-08-14T22:28:32.825Z,32.17
2022-08-14T22:31:10.409Z,32.15
2022-08-14T22:33:40.045Z,32.12
2022-08-14T22:36:33.663Z,31.89
2022-08-14T22:39:02.968Z,32.47
2022-08-14T22:41:42.122Z,32.53
2022-08-14T22:44:19.663Z,32.38
2022-08-14T22:46:49.677Z,32.29
2022-08-14T22:50:30.033Z,32.78
2022-08-14T22:52:31.524Z,32.99
2022-08-14T22:54:58.849Z,32.91
2022-08-14T22:57:27.591Z,33.04
2022-08-14T23:00:25.084Z,33.21
2022-08-14T23:02:58.093Z,32.90
2022-08-14T23:05:38.823Z,33.07
2022-08-14T23:08:59.614Z,33.43
2022-08-14T23:10:59.589Z,32.80
2022-08-14T23:13:26.638Z,32.93
2022-08-14T23:15:58.119Z,33.26
2022-08-14T23:18:29.708Z,33.29
2022-08-14T23:20:57.054Z,33.62
2022-08-14T23:23:24.466Z,33.72
2022-08-14T23:26:00.496Z,33.58
2022-08-14T23:28:56.831Z,33.82
2022-08-14T23:31:35.737Z,33.83
2022-08-14T23:34:14.303Z,33.96
2022-08-14T23:36:55.871Z,34.08
2022-08-14T23:39:30.935Z,33.68
2022-08-14T23:42:04.935Z,34.29
2022-08-14T23:44:35.320Z,34.36
2022-08-14T23:47:12.241Z,34.26
2022-08-14T23:50:01.212Z,34.62
2022-08-14T23:52:56.162Z,34.45
2022-08-14T23:55:32.591Z,34.23
2022-08-14T23:58:00.995Z,34.85
